Agia Irini Chrisoval — SV3972 — position and weather

sailwx.info

Track history (hours):
 
Tides and Currents Weather Stations Pressure Air Temp Water Temp Dewpoint Dewpoint Depression Visibility Wind Speed Wind Dir Waves Ship Positions

Agia Irini Chrisoval

Last reported at 2017-Nov-19 15:30 UTC. Time now 2017-Nov-20 17:43 UTC.
Position N 37°56' E 023°40'.

Length 22 m.

Type: Fishing. MMSI: 237562000.

Date/timePositionNaut miles runAvg speedWind from/ knotsBaromVisibWave heightAir tempDewpointWater temp
2017-Nov-19 15:30N 37°56' E 023°40'  
2017-Nov-16 04:34N 37°56' E 023°40'0 5.3
2017-Nov-16 04:30N 37°56' E 023°40'0 0.1
2017-Nov-15 23:48N 37°56' E 023°40'0 0.0
2017-Nov-15 23:30N 37°56' E 023°40'1 1.7
2017-Nov-15 23:00N 37°55' E 023°40'4 7.4
2017-Nov-15 22:30N 37°52' E 023°42'5 0.1
2017-Nov-14 07:45N 37°56' E 023°40'1 5.9
2017-Nov-14 07:30N 37°55' E 023°38'2 4.5
2017-Nov-14 07:00N 37°57' E 023°37'0 0.0
2017-Nov-14 06:30N 37°57' E 023°37'  
2017-Nov-10 21:22N 37°56' E 023°40'0 0.0
2017-Nov-10 21:00N 37°56' E 023°40'0 0.0
2017-Nov-10 20:30N 37°56' E 023°40'0 0.0
2017-Nov-10 20:00N 37°56' E 023°40'0 0.0
2017-Nov-10 19:30N 37°56' E 023°40'0 0.0
2017-Nov-10 19:00N 37°56' E 023°40'0 0.0
2017-Nov-10 18:30N 37°56' E 023°40'0 0.0
2017-Nov-10 18:00N 37°56' E 023°40'0 0.0
2017-Nov-10 17:30N 37°56' E 023°40'0 0.0
2017-Nov-10 17:00N 37°56' E 023°40'0 0.0
2017-Nov-10 06:25N 37°56' E 023°40'2 4.6
2017-Nov-10 06:00N 37°54' E 023°39'1 2.2
2017-Nov-10 05:30N 37°53' E 023°39'0 0.2
2017-Nov-10 05:00N 37°53' E 023°39'0 0.2
2017-Nov-10 04:30N 37°53' E 023°39'0 0.1
2017-Nov-10 04:00N 37°53' E 023°39'0 0.2
2017-Nov-10 03:30N 37°53' E 023°39'0 0.3
2017-Nov-10 03:00N 37°53' E 023°39'0 0.7
2017-Nov-10 02:30N 37°53' E 023°40'0 0.2
2017-Nov-10 02:00N 37°53' E 023°40'0 0.8
2017-Nov-10 01:30N 37°53' E 023°39'1 1.9
2017-Nov-10 01:00N 37°54' E 023°39'2 3.7
2017-Nov-10 00:30N 37°56' E 023°40'0 0.0
2017-Nov-10 00:00N 37°56' E 023°40'0 0.0
2017-Nov-09 23:30N 37°56' E 023°40'0 0.0
2017-Nov-09 23:00N 37°56' E 023°40'0 0.0
2017-Nov-09 22:30N 37°56' E 023°40'2 4.2
2017-Nov-09 22:00N 37°54' E 023°40'1 2.0
2017-Nov-09 21:30N 37°53' E 023°39'0 0.2
2017-Nov-09 21:00N 37°53' E 023°39'0 0.2
2017-Nov-09 20:30N 37°53' E 023°39'0 0.4
2017-Nov-09 20:00N 37°53' E 023°39'0 0.3
2017-Nov-09 19:30N 37°53' E 023°39'1 1.7
2017-Nov-09 19:00N 37°54' E 023°39'1 2.2
2017-Nov-09 18:30N 37°53' E 023°39'2 4.3
2017-Nov-09 18:00N 37°55' E 023°40'  
Track history (hours):
 
Tides and Currents Weather Stations Pressure Air Temp Water Temp Dewpoint Dewpoint Depression Visibility Wind Speed Wind Dir Waves Ship Positions

Agia Irini Chrisoval

Last reported at 2017-Nov-19 15:30 UTC. Time now 2017-Nov-20 17:43 UTC.
Position N 37°56' E 023°40'.

Length 22 m.

Type: Fishing. MMSI: 237562000.

Date/timePositionNaut miles runAvg speedWind from/ knotsBaromVisibWave heightAir tempDewpointWater temp
2017-Nov-19 15:30N 37°56' E 023°40'  
2017-Nov-16 04:34N 37°56' E 023°40'0 5.3
2017-Nov-16 04:30N 37°56' E 023°40'0 0.1
2017-Nov-15 23:48N 37°56' E 023°40'0 0.0
2017-Nov-15 23:30N 37°56' E 023°40'1 1.7
2017-Nov-15 23:00N 37°55' E 023°40'4 7.4
2017-Nov-15 22:30N 37°52' E 023°42'5 0.1
2017-Nov-14 07:45N 37°56' E 023°40'1 5.9
2017-Nov-14 07:30N 37°55' E 023°38'2 4.5
2017-Nov-14 07:00N 37°57' E 023°37'0 0.0
2017-Nov-14 06:30N 37°57' E 023°37'  
2017-Nov-10 21:22N 37°56' E 023°40'0 0.0
2017-Nov-10 21:00N 37°56' E 023°40'0 0.0
2017-Nov-10 20:30N 37°56' E 023°40'0 0.0
2017-Nov-10 20:00N 37°56' E 023°40'0 0.0
2017-Nov-10 19:30N 37°56' E 023°40'0 0.0
2017-Nov-10 19:00N 37°56' E 023°40'0 0.0
2017-Nov-10 18:30N 37°56' E 023°40'0 0.0
2017-Nov-10 18:00N 37°56' E 023°40'0 0.0
2017-Nov-10 17:30N 37°56' E 023°40'0 0.0
2017-Nov-10 17:00N 37°56' E 023°40'0 0.0
2017-Nov-10 06:25N 37°56' E 023°40'2 4.6
2017-Nov-10 06:00N 37°54' E 023°39'1 2.2
2017-Nov-10 05:30N 37°53' E 023°39'0 0.2
2017-Nov-10 05:00N 37°53' E 023°39'0 0.2
2017-Nov-10 04:30N 37°53' E 023°39'0 0.1
2017-Nov-10 04:00N 37°53' E 023°39'0 0.2
2017-Nov-10 03:30N 37°53' E 023°39'0 0.3
2017-Nov-10 03:00N 37°53' E 023°39'0 0.7
2017-Nov-10 02:30N 37°53' E 023°40'0 0.2
2017-Nov-10 02:00N 37°53' E 023°40'0 0.8
2017-Nov-10 01:30N 37°53' E 023°39'1 1.9
2017-Nov-10 01:00N 37°54' E 023°39'2 3.7
2017-Nov-10 00:30N 37°56' E 023°40'0 0.0
2017-Nov-10 00:00N 37°56' E 023°40'0 0.0
2017-Nov-09 23:30N 37°56' E 023°40'0 0.0
2017-Nov-09 23:00N 37°56' E 023°40'0 0.0
2017-Nov-09 22:30N 37°56' E 023°40'2 4.2
2017-Nov-09 22:00N 37°54' E 023°40'1 2.0
2017-Nov-09 21:30N 37°53' E 023°39'0 0.2
2017-Nov-09 21:00N 37°53' E 023°39'0 0.2
2017-Nov-09 20:30N 37°53' E 023°39'0 0.4
2017-Nov-09 20:00N 37°53' E 023°39'0 0.3
2017-Nov-09 19:30N 37°53' E 023°39'1 1.7
2017-Nov-09 19:00N 37°54' E 023°39'1 2.2
2017-Nov-09 18:30N 37°53' E 023°39'2 4.3
2017-Nov-09 18:00N 37°55' E 023°40'  

Dump ship's entire track history